createdAt,value
2022-10-29T00:01:05.688Z,16.00
2022-10-29T00:03:33.174Z,15.98
2022-10-29T00:06:08.085Z,15.80
2022-10-29T00:08:38.000Z,15.93
2022-10-29T00:11:12.011Z,15.27
2022-10-29T00:13:39.973Z,14.77
2022-10-29T00:16:18.876Z,16.33
2022-10-29T00:18:47.689Z,15.40
2022-10-29T00:21:21.032Z,15.85
2022-10-29T00:23:49.854Z,15.70
2022-10-29T00:26:19.653Z,15.18
2022-10-29T00:28:47.659Z,14.90
2022-10-29T00:31:24.414Z,15.63
2022-10-29T00:33:54.242Z,16.02
2022-10-29T00:36:26.459Z,15.20
2022-10-29T00:38:53.908Z,15.27
2022-10-29T00:41:26.695Z,14.65
2022-10-29T00:44:20.619Z,15.18
2022-10-29T00:47:04.837Z,14.57
2022-10-29T00:49:34.622Z,16.05
2022-10-29T00:52:05.800Z,14.73
2022-10-29T00:54:38.920Z,14.52
2022-10-29T00:57:20.436Z,14.73
2022-10-29T01:02:17.877Z,14.43
2022-10-29T01:04:47.173Z,16.27
2022-10-29T01:07:14.909Z,14.85
2022-10-29T01:09:42.990Z,15.02
2022-10-29T01:12:13.279Z,14.90
2022-10-29T01:14:52.741Z,14.88
2022-10-29T01:18:21.013Z,14.15
2022-10-29T01:20:51.216Z,14.38
2022-10-29T01:23:32.959Z,14.35
2022-10-29T01:26:21.973Z,14.80
2022-10-29T01:29:16.437Z,13.82
2022-10-29T01:32:11.561Z,14.48
2022-10-29T01:35:19.779Z,14.60
2022-10-29T01:38:12.221Z,14.25
2022-10-29T01:41:16.452Z,14.52
2022-10-29T01:43:55.502Z,14.57
2022-10-29T01:46:37.233Z,14.70
2022-10-29T01:49:13.340Z,14.43
2022-10-29T01:51:42.550Z,16.77
2022-10-29T01:54:12.357Z,14.77
2022-10-29T01:56:39.793Z,14.40
2022-10-29T01:59:18.488Z,16.73
2022-10-29T02:02:38.349Z,15.38
2022-10-29T02:05:34.024Z,15.25
2022-10-29T02:08:43.392Z,14.52
2022-10-29T02:11:16.881Z,14.15
2022-10-29T02:13:59.521Z,15.50
2022-10-29T02:16:28.371Z,15.93
2022-10-29T02:18:57.316Z,15.20
2022-10-29T02:21:25.239Z,15.20
2022-10-29T02:23:53.435Z,14.65
2022-10-29T02:26:21.930Z,14.90
2022-10-29T02:28:49.389Z,15.23
2022-10-29T02:31:16.834Z,15.00
2022-10-29T02:33:44.253Z,14.70
2022-10-29T02:36:11.733Z,13.65
2022-10-29T02:38:39.210Z,14.15
2022-10-29T02:41:06.675Z,14.27
2022-10-29T02:43:34.152Z,14.18
2022-10-29T02:46:24.420Z,14.35
2022-10-29T02:48:51.935Z,14.18
2022-10-29T02:51:19.650Z,14.95
2022-10-29T02:53:47.096Z,14.27
2022-10-29T02:56:14.561Z,14.73
2022-10-29T02:58:42.259Z,14.63
2022-10-29T03:01:10.166Z,14.02
2022-10-29T03:03:37.730Z,21.15
2022-10-29T03:06:05.599Z,21.70
2022-10-29T03:08:32.979Z,21.95
2022-10-29T03:11:00.468Z,15.55
2022-10-29T03:13:28.012Z,83.10
2022-10-29T03:15:55.477Z,71.78
2022-10-29T03:18:25.479Z,42.55
2022-10-29T03:20:53.066Z,16.77
2022-10-29T03:23:20.554Z,18.80
2022-10-29T03:25:55.818Z,53.10
2022-10-29T03:28:26.112Z,72.80
2022-10-29T03:30:53.559Z,22.70
2022-10-29T03:33:21.053Z,17.88
2022-10-29T03:35:48.575Z,82.60
2022-10-29T03:38:18.295Z,45.38
2022-10-29T03:40:45.808Z,56.33
2022-10-29T03:43:13.260Z,24.90
2022-10-29T03:45:40.815Z,30.63
2022-10-29T03:48:08.289Z,22.83
2022-10-29T03:50:35.786Z,15.68
2022-10-29T03:53:03.403Z,14.80
2022-10-29T03:55:31.340Z,15.07
2022-10-29T03:57:59.222Z,14.48
2022-10-29T04:00:26.735Z,14.63
2022-10-29T04:02:54.575Z,14.95
2022-10-29T04:05:22.347Z,14.75
2022-10-29T04:07:49.781Z,14.68
2022-10-29T04:10:17.290Z,14.10
2022-10-29T04:12:48.260Z,14.60
2022-10-29T04:15:16.013Z,15.20
2022-10-29T04:17:43.575Z,14.85
2022-10-29T04:20:21.158Z,17.00
2022-10-29T04:27:07.715Z,14.35
2022-10-29T04:28:50.360Z,14.48
2022-10-29T04:31:19.249Z,15.05
2022-10-29T04:33:46.665Z,14.82
2022-10-29T04:36:14.700Z,15.60
2022-10-29T04:38:42.058Z,14.20
2022-10-29T04:41:09.650Z,14.80
2022-10-29T04:43:37.826Z,15.13
2022-10-29T04:46:05.460Z,16.00
2022-10-29T04:48:33.121Z,14.40
2022-10-29T04:51:00.806Z,14.15
2022-10-29T04:53:28.554Z,14.00
2022-10-29T04:56:05.943Z,14.75
2022-10-29T04:58:33.386Z,14.27
2022-10-29T05:01:05.609Z,14.63
2022-10-29T05:03:34.502Z,14.18
2022-10-29T05:06:06.735Z,13.68
2022-10-29T05:08:34.768Z,13.80
2022-10-29T05:11:21.758Z,13.30
2022-10-29T05:13:49.275Z,13.55
2022-10-29T05:16:16.695Z,12.98
2022-10-29T05:18:44.297Z,13.95
2022-10-29T05:21:11.747Z,13.02
2022-10-29T05:23:39.160Z,12.25
2022-10-29T05:26:12.097Z,13.30
2022-10-29T05:28:39.714Z,13.80
2022-10-29T05:31:07.645Z,22.15
2022-10-29T05:33:35.082Z,15.30
2022-10-29T05:36:02.572Z,12.73
2022-10-29T05:38:30.115Z,12.07
2022-10-29T06:27:31.920Z,12.02
2022-10-29T06:30:00.003Z,11.77
2022-10-29T06:32:34.310Z,11.65
2022-10-29T06:37:53.968Z,12.15
2022-10-29T06:58:10.152Z,11.45
2022-10-29T07:00:44.694Z,11.10
2022-10-29T07:03:19.182Z,11.23
2022-10-29T07:05:47.821Z,11.82
2022-10-29T07:08:20.104Z,12.50
2022-10-29T07:10:55.939Z,11.95
2022-10-29T07:16:04.168Z,11.52
2022-10-29T07:21:22.758Z,10.90
2022-10-29T07:24:04.458Z,10.43
2022-10-29T07:26:43.491Z,10.93
2022-10-29T07:29:14.431Z,9.90
2022-10-29T07:32:04.411Z,10.50
2022-10-29T07:34:36.604Z,9.57
2022-10-29T07:37:08.625Z,9.55
2022-10-29T07:39:43.536Z,9.55
2022-10-29T07:51:14.369Z,8.85
2022-10-29T07:53:58.298Z,8.38
2022-10-29T07:56:29.712Z,8.65
2022-10-29T07:58:58.416Z,9.10
2022-10-29T08:01:27.011Z,8.25
2022-10-29T08:03:54.562Z,8.55
2022-10-29T08:06:26.602Z,8.02
2022-10-29T08:09:00.722Z,7.97
2022-10-29T08:11:31.954Z,7.57
2022-10-29T08:14:02.817Z,7.50
2022-10-29T08:16:31.988Z,7.20
2022-10-29T08:19:00.198Z,7.60
2022-10-29T08:21:28.095Z,6.88
2022-10-29T08:24:00.838Z,7.00
2022-10-29T08:26:28.549Z,6.60
2022-10-29T08:28:56.248Z,6.25
2022-10-29T08:31:24.214Z,6.82
2022-10-29T08:33:51.787Z,6.40
2022-10-29T08:36:19.670Z,6.40
2022-10-29T08:38:54.297Z,6.05
2022-10-29T08:41:25.898Z,6.47
2022-10-29T09:12:22.442Z,5.60
2022-10-29T09:15:14.322Z,5.63
2022-10-29T09:18:10.061Z,5.43
2022-10-29T09:21:12.268Z,5.65
2022-10-29T09:24:08.950Z,5.47
2022-10-29T09:27:02.520Z,6.28
2022-10-29T09:30:05.161Z,7.10
2022-10-29T09:33:07.493Z,5.93
2022-10-29T09:35:41.244Z,5.47
2022-10-29T09:38:35.444Z,5.85
2022-10-29T09:41:04.711Z,5.05
2022-10-29T09:43:40.017Z,5.25
2022-10-29T09:47:09.911Z,6.13
2022-10-29T09:50:09.138Z,6.03
2022-10-29T09:52:41.049Z,6.15
2022-10-29T09:55:20.750Z,5.50
2022-10-29T09:57:49.842Z,5.32
2022-10-29T10:00:36.841Z,5.90
2022-10-29T10:03:14.486Z,5.93
2022-10-29T10:06:10.832Z,6.38
2022-10-29T10:11:24.714Z,5.82
2022-10-29T10:13:58.122Z,5.80
2022-10-29T10:16:32.470Z,5.47
2022-10-29T10:19:00.222Z,5.28
2022-10-29T10:21:33.763Z,6.43
2022-10-29T10:24:01.418Z,5.63
2022-10-29T10:26:44.636Z,5.40
2022-10-29T10:29:27.599Z,5.28
2022-10-29T10:31:57.993Z,5.22
2022-10-29T10:34:36.321Z,5.40
2022-10-29T10:37:20.258Z,5.10
2022-10-29T10:40:24.908Z,4.95
2022-10-29T10:42:55.681Z,5.30
2022-10-29T10:45:39.512Z,4.95
2022-10-29T10:48:13.450Z,5.05
2022-10-29T10:50:41.730Z,4.95
2022-10-29T10:53:26.300Z,4.63
2022-10-29T10:56:00.721Z,6.07
2022-10-29T10:58:44.460Z,5.78
2022-10-29T11:01:23.628Z,5.75
2022-10-29T11:04:10.871Z,5.22
2022-10-29T11:06:47.024Z,5.15
2022-10-29T13:30:47.651Z,9.05
2022-10-29T13:33:29.301Z,6.90
2022-10-29T13:36:16.759Z,7.72
2022-10-29T13:39:06.436Z,6.93
2022-10-29T13:41:54.899Z,7.10
2022-10-29T13:44:26.540Z,6.70
2022-10-29T13:47:04.674Z,7.90
2022-10-29T13:49:41.624Z,7.43
2022-10-29T13:52:24.711Z,8.30
2022-10-29T13:55:09.824Z,7.43
2022-10-29T13:58:07.598Z,7.50
2022-10-29T14:00:38.390Z,6.20
2022-10-29T14:03:21.296Z,6.22
2022-10-29T14:05:53.682Z,6.90
2022-10-29T14:08:47.504Z,6.30
2022-10-29T14:11:30.234Z,6.75
2022-10-29T14:14:02.433Z,7.78
2022-10-29T14:16:32.999Z,7.30
2022-10-29T14:19:16.333Z,7.07
2022-10-29T14:21:43.798Z,6.90
2022-10-29T14:24:15.833Z,6.32
2022-10-29T14:26:45.938Z,6.72
2022-10-29T14:29:22.888Z,7.65
2022-10-29T14:32:18.800Z,6.95
2022-10-29T14:34:50.643Z,7.15
2022-10-29T14:37:37.744Z,6.90
2022-10-29T14:40:22.036Z,6.53
2022-10-29T14:42:54.870Z,7.07
2022-10-29T14:45:28.706Z,6.78
2022-10-29T14:48:03.680Z,6.63
2022-10-29T14:50:32.150Z,6.13
2022-10-29T14:53:07.511Z,6.40
2022-10-29T14:55:42.254Z,6.53
2022-10-29T14:58:12.665Z,7.40
2022-10-29T15:00:58.717Z,7.07
2022-10-29T15:03:30.866Z,6.63
2022-10-29T15:06:19.689Z,7.20
2022-10-29T15:09:03.843Z,7.65
2022-10-29T15:11:48.314Z,7.35
2022-10-29T15:16:59.716Z,7.38
2022-10-29T15:19:27.826Z,11.98
2022-10-29T15:21:55.192Z,9.80
2022-10-29T15:24:25.056Z,11.93
2022-10-29T15:26:58.859Z,12.20
2022-10-29T15:29:42.920Z,10.20
2022-10-29T15:32:17.986Z,8.63
2022-10-29T15:34:55.029Z,8.35
2022-10-29T15:37:42.638Z,8.77
2022-10-29T15:40:19.623Z,9.18
2022-10-29T15:42:47.616Z,10.77
2022-10-29T15:45:28.490Z,9.18
2022-10-29T15:48:18.687Z,8.82
2022-10-29T16:09:03.713Z,17.70
2022-10-29T16:17:20.348Z,8.50
2022-10-29T16:23:41.445Z,12.90
2022-10-29T16:32:40.279Z,9.93
2022-10-29T16:35:33.981Z,11.07
2022-10-29T16:41:28.220Z,10.65
2022-10-29T16:57:31.902Z,14.40
2022-10-29T17:14:31.775Z,10.45
2022-10-29T17:24:06.812Z,10.77
2022-10-29T17:44:41.234Z,8.52
2022-10-29T17:59:22.217Z,11.07
2022-10-29T18:07:26.410Z,9.05
2022-10-29T18:09:55.356Z,8.95
2022-10-29T18:12:22.793Z,8.98
2022-10-29T18:14:50.783Z,8.80
2022-10-29T18:17:18.504Z,8.45
2022-10-29T18:19:48.199Z,10.00
2022-10-29T18:22:16.415Z,9.77
2022-10-29T18:24:53.788Z,9.32
2022-10-29T18:27:26.857Z,8.30
2022-10-29T18:29:54.507Z,8.93
2022-10-29T18:32:21.974Z,8.38
2022-10-29T18:34:53.069Z,13.15
2022-10-29T18:37:23.109Z,8.48
2022-10-29T18:39:52.378Z,9.88
2022-10-29T18:42:22.303Z,8.77
2022-10-29T18:44:50.039Z,8.60
2022-10-29T18:47:17.833Z,9.07
2022-10-29T18:49:48.364Z,9.45
2022-10-29T18:52:19.254Z,9.75
2022-10-29T18:54:51.187Z,10.15
2022-10-29T19:00:14.498Z,9.85
2022-10-29T19:02:52.394Z,10.15
2022-10-29T19:05:55.212Z,9.98
2022-10-29T19:08:26.988Z,9.88
2022-10-29T19:10:55.542Z,10.00
2022-10-29T19:13:23.856Z,9.82
2022-10-29T19:15:52.688Z,10.05
2022-10-29T19:18:20.712Z,10.02
2022-10-29T19:20:49.282Z,9.98
2022-10-29T19:23:17.654Z,9.68
2022-10-29T19:25:47.917Z,10.77
2022-10-29T19:28:16.001Z,9.63
2022-10-29T19:30:44.384Z,9.32
2022-10-29T19:33:16.127Z,9.20
2022-10-29T19:35:46.140Z,9.35
2022-10-29T19:38:15.232Z,10.30
2022-10-29T19:40:43.339Z,9.00
2022-10-29T19:43:16.644Z,9.93
2022-10-29T19:45:45.086Z,8.53
2022-10-29T19:48:12.826Z,9.30
2022-10-29T19:50:40.267Z,14.00
2022-10-29T19:53:08.127Z,9.50
2022-10-29T19:55:40.505Z,10.65
2022-10-29T19:58:08.890Z,8.85
2022-10-29T20:00:37.743Z,10.68
2022-10-29T20:03:05.859Z,9.57
2022-10-29T20:05:35.969Z,11.73
2022-10-29T20:08:19.322Z,8.90
2022-10-29T20:20:25.816Z,11.73
2022-10-29T20:25:36.764Z,10.65
2022-10-29T20:28:05.119Z,11.75
2022-10-29T20:30:32.594Z,10.85
2022-10-29T20:33:00.725Z,12.98
2022-10-29T20:35:28.410Z,18.80
2022-10-29T20:38:00.692Z,11.45
2022-10-29T20:40:38.887Z,12.20
2022-10-29T20:43:11.962Z,13.20
2022-10-29T20:45:39.643Z,17.05
2022-10-29T20:48:11.262Z,12.52
2022-10-29T20:50:40.717Z,11.35
2022-10-29T20:58:21.504Z,12.38
2022-10-29T21:00:52.695Z,13.38
2022-10-29T21:03:22.150Z,12.43
2022-10-29T21:05:53.396Z,11.48
2022-10-29T21:08:23.199Z,12.38
2022-10-29T21:10:50.787Z,13.00
2022-10-29T21:13:18.214Z,14.07
2022-10-29T21:15:45.954Z,13.05
2022-10-29T21:18:13.731Z,12.32
2022-10-29T21:20:42.946Z,12.95
2022-10-29T21:23:10.879Z,13.38
2022-10-29T21:25:38.473Z,13.18
2022-10-29T21:28:06.102Z,11.90
2022-10-29T21:30:33.648Z,13.82
2022-10-29T21:33:01.091Z,13.00
2022-10-29T21:35:28.573Z,12.60
2022-10-29T21:37:56.485Z,12.43
2022-10-29T21:40:24.058Z,12.77
2022-10-29T21:42:56.358Z,13.02
2022-10-29T21:45:25.590Z,12.15
2022-10-29T21:47:56.746Z,14.60
2022-10-29T21:50:24.389Z,12.10
2022-10-29T21:52:51.746Z,12.13
2022-10-29T21:55:19.232Z,12.52
2022-10-29T21:57:46.980Z,13.70
2022-10-29T22:00:24.738Z,23.23
2022-10-29T22:02:52.539Z,27.88
2022-10-29T22:05:20.638Z,19.27
2022-10-29T22:07:48.107Z,15.98
2022-10-29T22:10:15.616Z,20.70
2022-10-29T22:12:43.389Z,13.70
2022-10-29T22:15:11.029Z,14.38
2022-10-29T22:17:38.540Z,12.50
2022-10-29T22:20:07.016Z,12.55
2022-10-29T22:22:34.424Z,21.83
2022-10-29T22:25:02.033Z,15.38
2022-10-29T22:27:29.431Z,34.13
2022-10-29T22:29:56.855Z,12.60
2022-10-29T22:32:24.195Z,11.07
2022-10-29T22:34:52.008Z,12.20
2022-10-29T22:37:19.639Z,11.45
2022-10-29T22:39:47.574Z,11.63
2022-10-29T22:42:17.073Z,12.32
2022-10-29T22:44:46.742Z,16.10
2022-10-29T22:47:15.512Z,17.23
2022-10-29T22:49:43.597Z,15.20
2022-10-29T22:52:12.441Z,14.13
2022-10-29T22:54:40.801Z,15.52
2022-10-29T22:57:08.419Z,15.90
2022-10-29T22:59:35.935Z,15.32
2022-10-29T23:02:03.586Z,14.02
2022-10-29T23:04:31.456Z,14.45
2022-10-29T23:07:01.823Z,16.23
2022-10-29T23:09:29.631Z,13.68
2022-10-29T23:11:57.578Z,14.60
2022-10-29T23:14:25.184Z,14.02
2022-10-29T23:16:53.536Z,13.57
2022-10-29T23:19:20.970Z,17.48
2022-10-29T23:21:48.398Z,15.50
2022-10-29T23:24:16.105Z,19.23
2022-10-29T23:26:43.642Z,22.35
2022-10-29T23:29:11.185Z,16.60
2022-10-29T23:31:39.438Z,16.13
2022-10-29T23:34:07.501Z,16.15
2022-10-29T23:36:35.060Z,16.88
2022-10-29T23:39:02.465Z,15.23
2022-10-29T23:41:31.565Z,16.67
2022-10-29T23:43:59.716Z,23.58
2022-10-29T23:46:27.644Z,16.77
2022-10-29T23:48:55.677Z,17.83
2022-10-29T23:51:23.952Z,17.20
2022-10-29T23:53:54.857Z,14.88
2022-10-29T23:56:25.676Z,14.15
2022-10-29T23:58:53.141Z,13.55
